Time;durP1;ratioP1;P1;durP2;ratioP2;P2;SDS_P1;SDS_P2;PMS_P1;PMS_P2;Temp;Humidity;BMP_temperature;BMP_pressure;BME280_temperature;BME280_humidity;BME280_pressure;Samples;Min_cycle;Max_cycle;Signal;HPM_P1;HPM_P2
2022/10/09 00:00:49;;;;;;;41.90;26.95;;;;;;;;;;6247019;23;20442;-68
2022/10/09 00:03:17;;;;;;;50.70;29.38;;;;;;;;;;6247082;23;20026;-68
2022/10/09 00:05:45;;;;;;;55.33;34.20;;;;;;;;;;6247063;23;20091;-68
2022/10/09 00:08:12;;;;;;;41.85;29.75;;;;;;;;;;6247393;23;20434;-69
2022/10/09 00:10:41;;;;;;;54.17;35.00;;;;;;;;;;6246891;23;20016;-69
2022/10/09 00:13:08;;;;;;;52.47;30.95;;;;;;;;;;6246781;23;20016;-68
2022/10/09 00:15:40;;;;;;;50.42;35.15;;;;;;;;;;6247195;23;20066;-68
2022/10/09 00:18:09;;;;;;;53.45;37.35;;;;;;;;;;6247244;23;20091;-68
2022/10/09 00:20:37;;;;;;;55.63;36.03;;;;;;;;;;6246715;23;20074;-69
2022/10/09 00:23:05;;;;;;;55.03;34.53;;;;;;;;;;6247192;23;20018;-69
2022/10/09 00:25:33;;;;;;;43.80;28.73;;;;;;;;;;6246819;23;20066;-68
2022/10/09 00:28:01;;;;;;;49.08;31.92;;;;;;;;;;6246658;23;20017;-68
2022/10/09 00:30:28;;;;;;;47.78;32.33;;;;;;;;;;6246706;23;20353;-68
2022/10/09 00:32:56;;;;;;;53.80;33.00;;;;;;;;;;6219885;23;20016;-68
2022/10/09 00:35:23;;;;;;;45.25;26.92;;;;;;;;;;6246767;23;20017;-68
2022/10/09 00:37:51;;;;;;;43.08;27.13;;;;;;;;;;6247095;23;20027;-68
2022/10/09 00:40:19;;;;;;;57.30;35.10;;;;;;;;;;6246755;23;20055;-68
2022/10/09 00:42:47;;;;;;;60.53;40.13;;;;;;;;;;6246992;23;20074;-68
2022/10/09 00:45:19;;;;;;;57.83;38.83;;;;;;;;;;6246669;23;20016;-68
2022/10/09 00:47:48;;;;;;;53.10;34.38;;;;;;;;;;6246587;23;20047;-68
2022/10/09 00:50:21;;;;;;;52.33;32.38;;;;;;;;;;6246456;23;20041;-68
2022/10/09 00:52:50;;;;;;;56.38;37.40;;;;;;;;;;6246625;23;20323;-68
2022/10/09 00:55:18;;;;;;;47.75;31.52;;;;;;;;;;6246843;23;20016;-68
2022/10/09 00:57:46;;;;;;;69.35;41.70;;;;;;;;;;6246624;23;20016;-68
2022/10/09 01:00:14;;;;;;;57.95;39.08;;;;;;;;;;6219639;23;20024;-68
2022/10/09 01:02:41;;;;;;;46.42;32.92;;;;;;;;;;6246463;23;20457;-68
2022/10/09 01:05:10;;;;;;;57.47;35.80;;;;;;;;;;6246665;23;20450;-69
2022/10/09 01:07:42;;;;;;;53.08;38.80;;;;;;;;;;6219592;23;20023;-69
2022/10/09 01:10:28;;;;;;;49.15;32.92;;;;;;;;;;6246308;23;20066;-69
2022/10/09 01:13:12;;;;;;;49.25;32.95;;;;;;;;;;6246359;23;20039;-67
2022/10/09 01:15:48;;;;;;;55.90;34.25;;;;;;;;;;6246389;23;20012;-67
2022/10/09 01:18:36;;;;;;;51.42;35.08;;;;;;;;;;6219834;23;20016;-67
2022/10/09 01:21:06;;;;;;;61.33;42.15;;;;;;;;;;6246161;23;20026;-67
2022/10/09 01:23:37;;;;;;;56.38;40.60;;;;;;;;;;6246259;23;20465;-67
2022/10/09 01:26:09;;;;;;;80.10;52.00;;;;;;;;;;6246048;23;20020;-67
2022/10/09 01:28:38;;;;;;;72.72;49.25;;;;;;;;;;6246173;23;20447;-67
2022/10/09 01:31:06;;;;;;;94.95;62.33;;;;;;;;;;6245995;23;20043;-67
2022/10/09 01:33:34;;;;;;;79.65;51.13;;;;;;;;;;6219598;23;20099;-67
2022/10/09 01:36:02;;;;;;;82.35;55.50;;;;;;;;;;6246015;23;20031;-67
2022/10/09 01:38:30;;;;;;;67.85;47.08;;;;;;;;;;6219151;23;20016;-67
2022/10/09 01:40:58;;;;;;;59.08;37.97;;;;;;;;;;6246090;23;20020;-67
2022/10/09 01:43:25;;;;;;;49.35;32.47;;;;;;;;;;6219627;23;20435;-66
2022/10/09 01:46:13;;;;;;;71.68;49.95;;;;;;;;;;6246333;23;20016;-67
2022/10/09 01:48:40;;;;;;;81.65;53.70;;;;;;;;;;6219698;23;20039;-67
2022/10/09 01:51:08;;;;;;;73.68;52.78;;;;;;;;;;6245886;23;20012;-67
2022/10/09 01:53:36;;;;;;;63.40;45.05;;;;;;;;;;6246034;23;20012;-67
2022/10/09 01:56:12;;;;;;;61.63;45.97;;;;;;;;;;6245856;23;20048;-67
2022/10/09 01:58:51;;;;;;;63.45;43.35;;;;;;;;;;6245930;23;20016;-67
2022/10/09 02:01:25;;;;;;;55.80;36.75;;;;;;;;;;6245948;23;20039;-67
2022/10/09 02:03:54;;;;;;;63.88;44.28;;;;;;;;;;6219422;23;20350;-67
2022/10/09 02:06:23;;;;;;;48.08;31.60;;;;;;;;;;6245829;23;20019;-67
2022/10/09 02:08:52;;;;;;;48.75;32.10;;;;;;;;;;6218978;23;20020;-66
2022/10/09 02:11:20;;;;;;;45.67;29.10;;;;;;;;;;6219103;23;20023;-67
2022/10/09 02:13:51;;;;;;;47.97;31.23;;;;;;;;;;6245826;23;20035;-67
2022/10/09 02:16:37;;;;;;;43.20;28.60;;;;;;;;;;6245726;23;20097;-67
2022/10/09 02:19:11;;;;;;;68.97;46.60;;;;;;;;;;6245759;23;20019;-67
2022/10/09 02:21:47;;;;;;;55.92;38.53;;;;;;;;;;6218838;23;20456;-66
2022/10/09 02:24:21;;;;;;;61.58;42.78;;;;;;;;;;6220295;23;20036;-66
2022/10/09 02:26:50;;;;;;;59.40;39.03;;;;;;;;;;6245707;23;20078;-67
2022/10/09 02:29:17;;;;;;;56.63;39.67;;;;;;;;;;6245560;23;20553;-67
2022/10/09 02:31:45;;;;;;;49.38;31.90;;;;;;;;;;6219072;23;20051;-67
2022/10/09 02:34:14;;;;;;;52.45;32.83;;;;;;;;;;6245612;23;20012;-67
2022/10/09 02:36:42;;;;;;;58.88;37.17;;;;;;;;;;6245721;23;20043;-67
2022/10/09 02:39:09;;;;;;;56.42;38.17;;;;;;;;;;6245939;23;20020;-67
2022/10/09 02:41:37;;;;;;;52.35;35.50;;;;;;;;;;6245566;23;20062;-67
2022/10/09 02:44:05;;;;;;;49.05;29.63;;;;;;;;;;6245696;23;20039;-67
2022/10/09 02:46:33;;;;;;;48.40;30.33;;;;;;;;;;6245509;23;20022;-67
2022/10/09 02:49:00;;;;;;;45.70;28.80;;;;;;;;;;6245718;23;20016;-67
2022/10/09 02:51:28;;;;;;;41.03;27.27;;;;;;;;;;6218461;23;20047;-67
2022/10/09 02:53:55;;;;;;;50.88;32.00;;;;;;;;;;6245871;23;20446;-67
2022/10/09 02:56:23;;;;;;;46.45;28.30;;;;;;;;;;6245387;23;20054;-67
2022/10/09 02:58:50;;;;;;;37.33;22.80;;;;;;;;;;6218609;23;20012;-67
2022/10/09 03:01:18;;;;;;;38.75;25.00;;;;;;;;;;6218551;23;20016;-67
2022/10/09 03:03:46;;;;;;;36.90;24.88;;;;;;;;;;6245722;23;20031;-67
2022/10/09 03:06:14;;;;;;;48.75;32.85;;;;;;;;;;6245401;23;20020;-67
2022/10/09 03:08:44;;;;;;;31.20;23.00;;;;;;;;;;6245527;23;20020;-67
2022/10/09 03:11:13;;;;;;;32.67;23.55;;;;;;;;;;6245275;23;20446;-67
2022/10/09 03:13:40;;;;;;;49.05;34.58;;;;;;;;;;6245342;23;20023;-67
2022/10/09 03:16:10;;;;;;;49.90;32.65;;;;;;;;;;6218479;23;20078;-67
2022/10/09 03:18:37;;;;;;;33.22;22.92;;;;;;;;;;6245573;23;20022;-67
2022/10/09 03:21:09;;;;;;;40.90;27.98;;;;;;;;;;6245387;23;20094;-67
2022/10/09 03:23:36;;;;;;;46.60;33.17;;;;;;;;;;6218480;23;20099;-67
2022/10/09 03:26:06;;;;;;;56.65;41.80;;;;;;;;;;6245483;23;20016;-67
2022/10/09 03:28:41;;;;;;;43.38;29.15;;;;;;;;;;6218326;23;20351;-67
2022/10/09 03:31:09;;;;;;;;;;;;;;;;;;6245789;23;20457;-67
2022/10/09 03:33:48;;;;;;;55.25;37.63;;;;;;;;;;6245361;23;19916;-67
2022/10/09 03:36:16;;;;;;;42.10;26.67;;;;;;;;;;6245380;23;20017;-67
2022/10/09 03:38:43;;;;;;;27.83;19.38;;;;;;;;;;6219168;23;20430;-67
2022/10/09 03:41:11;;;;;;;36.50;23.50;;;;;;;;;;6245208;23;20012;-67
2022/10/09 03:43:38;;;;;;;34.00;23.80;;;;;;;;;;6245238;23;20019;-67
2022/10/09 03:46:07;;;;;;;29.65;19.92;;;;;;;;;;6219008;23;20066;-66
2022/10/09 03:48:35;;;;;;;28.23;19.63;;;;;;;;;;6245182;23;20016;-67
2022/10/09 03:51:03;;;;;;;32.08;20.27;;;;;;;;;;6244960;23;20398;-67
2022/10/09 03:53:30;;;;;;;28.35;18.95;;;;;;;;;;6245392;23;20043;-67
2022/10/09 03:55:58;;;;;;;27.52;19.23;;;;;;;;;;6245250;23;20456;-67
2022/10/09 03:58:25;;;;;;;33.00;21.85;;;;;;;;;;6218246;23;20016;-66
2022/10/09 04:00:53;;;;;;;24.52;18.05;;;;;;;;;;6245120;23;20052;-67
2022/10/09 04:03:21;;;;;;;26.40;17.70;;;;;;;;;;6246832;23;20020;-67
2022/10/09 04:05:48;;;;;;;27.02;18.85;;;;;;;;;;6247096;23;20127;-66
2022/10/09 04:08:16;;;;;;;33.78;19.13;;;;;;;;;;6246871;23;20017;-67
2022/10/09 04:10:44;;;;;;;24.45;17.50;;;;;;;;;;6247290;23;20043;-67
2022/10/09 04:13:11;;;;;;;30.35;19.35;;;;;;;;;;6246894;23;20074;-67
2022/10/09 04:15:39;;;;;;;29.35;19.35;;;;;;;;;;6247006;23;20020;-67
2022/10/09 04:18:07;;;;;;;31.83;20.65;;;;;;;;;;6220683;23;20023;-67
2022/10/09 04:20:34;;;;;;;29.73;19.10;;;;;;;;;;6246977;23;20016;-67
2022/10/09 04:23:02;;;;;;;24.75;17.48;;;;;;;;;;6246878;23;20024;-67
2022/10/09 04:25:30;;;;;;;26.40;19.05;;;;;;;;;;6219622;23;20342;-67
2022/10/09 04:27:58;;;;;;;20.92;14.80;;;;;;;;;;6247127;23;20028;-67
2022/10/09 04:30:25;;;;;;;26.85;17.60;;;;;;;;;;6247081;23;20016;-67
2022/10/09 04:32:52;;;;;;;22.30;15.43;;;;;;;;;;6219570;23;20024;-67
2022/10/09 04:35:20;;;;;;;22.15;16.02;;;;;;;;;;6246507;23;20031;-67
2022/10/09 04:37:47;;;;;;;27.35;18.17;;;;;;;;;;6245931;23;20012;-67
2022/10/09 04:40:15;;;;;;;26.80;17.10;;;;;;;;;;6245824;23;20016;-67
2022/10/09 04:42:42;;;;;;;27.00;18.55;;;;;;;;;;6246750;23;20961;-67
2022/10/09 04:45:10;;;;;;;26.10;15.68;;;;;;;;;;6246598;23;20430;-68
2022/10/09 04:47:37;;;;;;;26.50;16.38;;;;;;;;;;6219605;23;20110;-66
2022/10/09 04:50:05;;;;;;;25.83;16.70;;;;;;;;;;6219708;23;20016;-66
2022/10/09 04:52:32;;;;;;;29.30;16.40;;;;;;;;;;6220087;23;20027;-67
2022/10/09 04:55:00;;;;;;;23.85;17.15;;;;;;;;;;6246541;23;20496;-67
2022/10/09 04:57:27;;;;;;;51.08;32.63;;;;;;;;;;6246707;23;20078;-66
2022/10/09 04:59:55;;;;;;;44.25;31.05;;;;;;;;;;6246422;23;20023;-67
2022/10/09 05:02:22;;;;;;;46.00;30.35;;;;;;;;;;6245963;23;20012;-66
2022/10/09 05:04:50;;;;;;;53.63;34.83;;;;;;;;;;6245828;23;20651;-66
2022/10/09 05:07:17;;;;;;;32.38;22.63;;;;;;;;;;6219437;23;20096;-66
2022/10/09 05:09:45;;;;;;;34.30;21.90;;;;;;;;;;6246211;23;20024;-66
2022/10/09 05:12:12;;;;;;;31.45;21.52;;;;;;;;;;6219682;23;20016;-66
2022/10/09 05:14:39;;;;;;;31.25;22.30;;;;;;;;;;6246051;23;20016;-66
2022/10/09 05:17:07;;;;;;;34.22;22.02;;;;;;;;;;6246249;23;20016;-66
2022/10/09 05:19:41;;;;;;;38.28;25.50;;;;;;;;;;6245784;23;20034;-66
2022/10/09 05:22:08;;;;;;;29.20;18.70;;;;;;;;;;6246325;23;20508;-67
2022/10/09 05:24:36;;;;;;;50.22;34.22;;;;;;;;;;6246080;23;20338;-67
2022/10/09 05:27:03;;;;;;;47.80;34.05;;;;;;;;;;6246177;23;20017;-66
2022/10/09 05:29:31;;;;;;;37.95;27.17;;;;;;;;;;6245926;23;20028;-67
2022/10/09 05:31:58;;;;;;;43.38;29.05;;;;;;;;;;6245766;23;20507;-66
2022/10/09 05:34:26;;;;;;;43.55;28.92;;;;;;;;;;6245988;23;20500;-67
2022/10/09 05:36:53;;;;;;;23.85;16.67;;;;;;;;;;6245994;23;20020;-66
2022/10/09 05:39:20;;;;;;;41.28;25.85;;;;;;;;;;6246507;23;20046;-66
2022/10/09 05:41:48;;;;;;;33.80;23.35;;;;;;;;;;6245608;23;20517;-66
2022/10/09 05:44:15;;;;;;;32.33;23.20;;;;;;;;;;6245909;23;20012;-66
2022/10/09 05:46:43;;;;;;;27.83;18.45;;;;;;;;;;6245966;23;20057;-66
2022/10/09 05:49:11;;;;;;;24.27;17.08;;;;;;;;;;6245903;23;20021;-66
2022/10/09 05:51:41;;;;;;;26.77;17.58;;;;;;;;;;6219816;23;20020;-66
2022/10/09 05:54:12;;;;;;;31.85;22.83;;;;;;;;;;6245988;23;20019;-66
2022/10/09 05:56:41;;;;;;;25.45;18.50;;;;;;;;;;6246313;23;20091;-66
2022/10/09 05:59:09;;;;;;;37.13;22.42;;;;;;;;;;6219807;23;20009;-66
2022/10/09 06:01:38;;;;;;;28.40;20.13;;;;;;;;;;6219391;23;20020;-66
2022/10/09 06:04:08;;;;;;;31.02;21.58;;;;;;;;;;6219073;23;20106;-66
2022/10/09 06:06:37;;;;;;;29.02;19.88;;;;;;;;;;6245853;23;20350;-67
2022/10/09 06:09:05;;;;;;;29.33;19.60;;;;;;;;;;6219043;23;20016;-67
2022/10/09 06:11:34;;;;;;;29.80;20.90;;;;;;;;;;6245876;23;20020;-67
2022/10/09 06:14:02;;;;;;;23.83;20.23;;;;;;;;;;6245859;23;20036;-67
2022/10/09 06:16:34;;;;;;;33.45;25.30;;;;;;;;;;6246137;23;20016;-67
2022/10/09 06:19:02;;;;;;;28.73;23.30;;;;;;;;;;6245637;23;20013;-67
2022/10/09 06:21:29;;;;;;;27.15;21.70;;;;;;;;;;6245818;23;20025;-67
2022/10/09 06:23:58;;;;;;;37.38;28.50;;;;;;;;;;6245662;23;20016;-67
2022/10/09 06:26:28;;;;;;;30.98;24.67;;;;;;;;;;6218709;23;20455;-67
2022/10/09 06:28:56;;;;;;;26.00;20.92;;;;;;;;;;6218709;23;20020;-67
2022/10/09 06:31:27;;;;;;;27.70;20.33;;;;;;;;;;6245733;23;20027;-67
2022/10/09 06:33:55;;;;;;;38.42;31.50;;;;;;;;;;6245584;23;20017;-67
2022/10/09 06:36:27;;;;;;;36.13;28.88;;;;;;;;;;6245608;23;20016;-67
2022/10/09 06:38:54;;;;;;;29.42;22.55;;;;;;;;;;6246038;23;20327;-67
2022/10/09 06:41:25;;;;;;;29.38;21.33;;;;;;;;;;6245501;23;20319;-67
2022/10/09 06:43:54;;;;;;;32.22;23.08;;;;;;;;;;6245368;23;20016;-67
2022/10/09 06:46:23;;;;;;;30.90;23.75;;;;;;;;;;6245467;23;20450;-67
2022/10/09 06:48:51;;;;;;;22.58;17.92;;;;;;;;;;6245530;23;20100;-67
2022/10/09 06:51:19;;;;;;;25.08;16.50;;;;;;;;;;6245391;23;20054;-67
2022/10/09 06:53:51;;;;;;;26.33;19.35;;;;;;;;;;6245441;23;20079;-67
2022/10/09 06:56:19;;;;;;;23.65;18.42;;;;;;;;;;6245522;23;20020;-68
2022/10/09 06:58:46;;;;;;;22.65;14.88;;;;;;;;;;6245505;23;20038;-68
2022/10/09 07:01:23;;;;;;;22.88;15.30;;;;;;;;;;6245437;23;20020;-67
2022/10/09 07:03:55;;;;;;;20.08;14.35;;;;;;;;;;6245339;23;20381;-67
2022/10/09 07:06:32;;;;;;;19.13;15.13;;;;;;;;;;6193798;23;20049;-67
2022/10/09 07:09:04;;;;;;;20.60;16.08;;;;;;;;;;6218840;23;20012;-67
2022/10/09 07:11:33;;;;;;;21.48;16.15;;;;;;;;;;6245396;23;20020;-67
2022/10/09 07:14:01;;;;;;;22.20;15.85;;;;;;;;;;6245183;23;20012;-67
2022/10/09 07:16:33;;;;;;;18.98;13.80;;;;;;;;;;6245401;23;20016;-67
2022/10/09 07:19:02;;;;;;;22.42;14.82;;;;;;;;;;6245628;23;20083;-67
2022/10/09 07:21:29;;;;;;;24.88;14.55;;;;;;;;;;6218529;23;20024;-67
2022/10/09 07:23:59;;;;;;;15.80;13.13;;;;;;;;;;6245381;23;20430;-66
2022/10/09 07:26:28;;;;;;;16.63;13.27;;;;;;;;;;6245221;23;20023;-66
2022/10/09 07:28:55;;;;;;;16.13;13.43;;;;;;;;;;6245072;23;20071;-66
2022/10/09 07:31:23;;;;;;;17.48;13.65;;;;;;;;;;6245005;23;20386;-67
2022/10/09 07:33:51;;;;;;;18.17;13.23;;;;;;;;;;6245301;23;20148;-66
2022/10/09 07:36:18;;;;;;;18.25;12.73;;;;;;;;;;6245131;23;20442;-66
2022/10/09 07:38:53;;;;;;;14.40;11.57;;;;;;;;;;6247240;23;20062;-66
2022/10/09 07:41:22;;;;;;;14.60;10.88;;;;;;;;;;6247267;23;20087;-67
2022/10/09 07:43:49;;;;;;;15.20;10.95;;;;;;;;;;6247153;23;20050;-67
2022/10/09 07:46:18;;;;;;;19.73;12.35;;;;;;;;;;6247248;23;20023;-67
2022/10/09 07:48:46;;;;;;;17.30;12.27;;;;;;;;;;6247102;23;20016;-67
2022/10/09 07:51:17;;;;;;;17.20;11.98;;;;;;;;;;6247236;23;20025;-67
2022/10/09 07:53:45;;;;;;;44.42;27.42;;;;;;;;;;6220172;23;20024;-67
2022/10/09 07:56:23;;;;;;;22.38;16.83;;;;;;;;;;6220803;23;20457;-68
2022/10/09 07:58:55;;;;;;;33.75;24.77;;;;;;;;;;6247010;23;20035;-67
2022/10/09 08:01:23;;;;;;;24.60;19.40;;;;;;;;;;6247501;23;20098;-67
2022/10/09 08:03:50;;;;;;;36.75;23.83;;;;;;;;;;6247144;23;20012;-67
2022/10/09 08:06:18;;;;;;;17.35;13.60;;;;;;;;;;6247015;23;20027;-67
2022/10/09 08:08:49;;;;;;;24.65;18.45;;;;;;;;;;6246961;23;20099;-67
2022/10/09 08:11:18;;;;;;;25.55;18.98;;;;;;;;;;6219905;23;20377;-67
2022/10/09 08:13:46;;;;;;;28.40;19.35;;;;;;;;;;6247189;23;20075;-67
2022/10/09 08:16:14;;;;;;;25.58;16.95;;;;;;;;;;6247537;23;20020;-67
2022/10/09 08:18:41;;;;;;;28.00;19.63;;;;;;;;;;6220328;23;20355;-67
2022/10/09 08:21:11;;;;;;;18.85;13.73;;;;;;;;;;6246886;23;20016;-67
2022/10/09 08:23:39;;;;;;;24.85;17.20;;;;;;;;;;6247103;23;20070;-67
2022/10/09 08:26:16;;;;;;;28.65;18.80;;;;;;;;;;6246690;23;20070;-67
2022/10/09 08:28:44;;;;;;;27.00;18.42;;;;;;;;;;6246910;23;20089;-67
2022/10/09 08:31:16;;;;;;;17.23;11.90;;;;;;;;;;6246905;23;20052;-67
2022/10/09 08:33:44;;;;;;;13.65;9.63;;;;;;;;;;6246791;23;20442;-67
2022/10/09 08:36:14;;;;;;;14.52;9.98;;;;;;;;;;6220219;23;20016;-67
2022/10/09 08:38:42;;;;;;;14.13;8.93;;;;;;;;;;6247228;23;20024;-67
2022/10/09 08:41:27;;;;;;;15.38;10.32;;;;;;;;;;6246878;23;20027;-67
2022/10/09 08:44:15;;;;;;;18.75;10.60;;;;;;;;;;6246942;23;20062;-68
2022/10/09 08:46:45;;;;;;;13.10;8.68;;;;;;;;;;6219857;23;20020;-68
2022/10/09 08:49:21;;;;;;;15.40;10.18;;;;;;;;;;6246495;23;20040;-67
2022/10/09 08:51:49;;;;;;;18.55;10.98;;;;;;;;;;6246724;23;20020;-67
2022/10/09 08:54:26;;;;;;;14.70;9.23;;;;;;;;;;6246451;23;20020;-67
2022/10/09 08:56:53;;;;;;;14.45;9.75;;;;;;;;;;6246479;23;20467;-67
2022/10/09 08:59:21;;;;;;;11.95;10.55;;;;;;;;;;6246269;23;20019;-67
2022/10/09 09:01:51;;;;;;;17.75;10.23;;;;;;;;;;6219616;23;20098;-68
2022/10/09 09:04:38;;;;;;;18.33;12.80;;;;;;;;;;6219459;23;20023;-67
2022/10/09 09:07:05;;;;;;;21.25;15.30;;;;;;;;;;6246732;23;20039;-67
2022/10/09 09:09:36;;;;;;;31.48;21.10;;;;;;;;;;6219705;23;20012;-67
2022/10/09 09:12:08;;;;;;;16.40;12.60;;;;;;;;;;6246240;23;20016;-67
2022/10/09 09:14:50;;;;;;;12.57;9.80;;;;;;;;;;6246142;23;20016;-67
2022/10/09 09:17:53;;;;;;;38.10;20.58;;;;;;;;;;6246269;23;20083;-67
2022/10/09 09:20:30;;;;;;;23.45;17.35;;;;;;;;;;6123767;23;20026;-65
2022/10/09 09:23:00;;;;;;;21.90;15.02;;;;;;;;;;6231683;23;20028;-67
2022/10/09 09:25:33;;;;;;;26.58;20.95;;;;;;;;;;6246017;23;20016;-67
2022/10/09 09:28:10;;;;;;;29.48;21.77;;;;;;;;;;6246505;23;20012;-67
2022/10/09 09:30:46;;;;;;;13.18;9.63;;;;;;;;;;6246212;23;20040;-67
2022/10/09 09:33:19;;;;;;;15.25;10.75;;;;;;;;;;6219894;23;20044;-67
2022/10/09 09:35:55;;;;;;;44.22;31.25;;;;;;;;;;6246421;23;20012;-67
2022/10/09 09:38:23;;;;;;;33.13;24.95;;;;;;;;;;6246109;23;20103;-67
2022/10/09 09:40:51;;;;;;;19.52;13.50;;;;;;;;;;6246027;23;20035;-68
2022/10/09 09:43:22;;;;;;;13.20;10.65;;;;;;;;;;6220300;23;20020;-66
2022/10/09 09:45:56;;;;;;;20.50;15.38;;;;;;;;;;6246129;23;20016;-67
2022/10/09 09:48:24;;;;;;;;;;;;;;;;;;6246917;23;20012;-67
2022/10/09 09:50:52;;;;;;;15.75;9.88;;;;;;;;;;6246120;23;19915;-67
2022/10/09 09:53:41;;;;;;;11.02;9.13;;;;;;;;;;6245920;23;20047;-67
2022/10/09 09:56:09;;;;;;;13.38;8.65;;;;;;;;;;6219064;23;20020;-67
2022/10/09 09:58:44;;;;;;;21.58;17.48;;;;;;;;;;6219014;23;20496;-67
2022/10/09 10:01:22;;;;;;;10.18;8.88;;;;;;;;;;6245516;23;20042;-67
2022/10/09 10:03:51;;;;;;;19.13;13.98;;;;;;;;;;6245887;23;20446;-67
2022/10/09 10:06:29;;;;;;;21.20;16.20;;;;;;;;;;6219408;23;20040;-67
2022/10/09 10:09:17;;;;;;;19.10;14.68;;;;;;;;;;6219151;23;20087;-67
2022/10/09 10:11:47;;;;;;;15.25;9.50;;;;;;;;;;6245680;23;20019;-67
2022/10/09 10:14:15;;;;;;;14.68;8.95;;;;;;;;;;6245785;23;20047;-67
2022/10/09 10:16:43;;;;;;;14.45;9.23;;;;;;;;;;6244155;23;20020;-67
2022/10/09 10:19:24;;;;;;;30.05;21.25;;;;;;;;;;6246154;23;20381;-67
2022/10/09 10:21:56;;;;;;;9.20;7.25;;;;;;;;;;6245827;23;20055;-68
2022/10/09 10:24:27;;;;;;;12.45;7.43;;;;;;;;;;6245512;23;20082;-65
2022/10/09 10:27:03;;;;;;;7.93;6.80;;;;;;;;;;6245670;23;20016;-67
2022/10/09 10:29:42;;;;;;;11.15;8.82;;;;;;;;;;6245600;23;20016;-68
2022/10/09 10:32:17;;;;;;;7.43;5.43;;;;;;;;;;6245307;23;20015;-67
2022/10/09 10:34:47;;;;;;;6.55;5.10;;;;;;;;;;6245827;23;20082;-67
2022/10/09 10:37:14;;;;;;;11.00;5.53;;;;;;;;;;6245795;23;20087;-65
2022/10/09 10:39:42;;;;;;;7.97;6.22;;;;;;;;;;6245563;23;20350;-66
2022/10/09 10:42:14;;;;;;;10.98;4.65;;;;;;;;;;6245435;23;20020;-66
2022/10/09 10:44:54;;;;;;;8.60;5.60;;;;;;;;;;6245539;23;20087;-66
2022/10/09 10:47:25;;;;;;;10.55;6.45;;;;;;;;;;6245732;23;20020;-66
2022/10/09 10:49:55;;;;;;;6.55;4.40;;;;;;;;;;6218767;23;20016;-67
2022/10/09 10:52:29;;;;;;;9.45;6.80;;;;;;;;;;6245394;23;20091;-66
2022/10/09 10:55:00;;;;;;;11.38;6.97;;;;;;;;;;6245501;23;20435;-67
2022/10/09 10:57:38;;;;;;;6.72;5.03;;;;;;;;;;6245279;23;20020;-67
2022/10/09 11:00:08;;;;;;;10.35;5.72;;;;;;;;;;6245968;23;20016;-67
2022/10/09 11:02:56;;;;;;;11.70;8.35;;;;;;;;;;6245174;23;20020;-67
2022/10/09 11:05:26;;;;;;;11.65;7.60;;;;;;;;;;6245208;23;20016;-66
2022/10/09 11:07:53;;;;;;;10.18;5.55;;;;;;;;;;6218451;23;20120;-67
2022/10/09 11:10:38;;;;;;;10.80;7.13;;;;;;;;;;6219853;23;20016;-67
2022/10/09 11:13:15;;;;;;;9.85;5.55;;;;;;;;;;6248588;23;20043;-67
2022/10/09 11:16:06;;;;;;;11.82;8.27;;;;;;;;;;6197570;23;20020;-67
2022/10/09 11:18:52;;;;;;;10.82;7.57;;;;;;;;;;6248728;23;20445;-66
2022/10/09 11:21:20;;;;;;;32.55;24.27;;;;;;;;;;6248750;23;20030;-67
2022/10/09 11:23:53;;;;;;;23.27;17.90;;;;;;;;;;6248576;23;20008;-67
2022/10/09 11:26:24;;;;;;;13.02;8.65;;;;;;;;;;6248824;23;20047;-66
2022/10/09 11:28:53;;;;;;;13.30;7.68;;;;;;;;;;6248832;23;20058;-67
2022/10/09 11:31:37;;;;;;;8.55;5.55;;;;;;;;;;6222443;23;20139;-67
2022/10/09 11:34:10;;;;;;;10.73;6.50;;;;;;;;;;6222147;23;20016;-67
2022/10/09 11:36:40;;;;;;;8.30;6.05;;;;;;;;;;6221779;23;20044;-66
2022/10/09 11:39:12;;;;;;;12.27;6.97;;;;;;;;;;6221986;23;20516;-66
2022/10/09 11:41:40;;;;;;;11.32;7.45;;;;;;;;;;6222397;23;20020;-66
2022/10/09 11:44:26;;;;;;;8.52;6.22;;;;;;;;;;6221548;23;20398;-66
2022/10/09 11:46:54;;;;;;;7.35;4.90;;;;;;;;;;6248379;23;20020;-67
2022/10/09 11:49:21;;;;;;;11.18;6.28;;;;;;;;;;6248673;23;20019;-66
2022/10/09 11:52:07;;;;;;;10.73;5.47;;;;;;;;;;6221819;23;20369;-66
2022/10/09 11:54:35;;;;;;;10.18;6.10;;;;;;;;;;6221495;23;20024;-66
2022/10/09 11:57:04;;;;;;;10.70;6.18;;;;;;;;;;6248669;23;20051;-66
2022/10/09 11:59:35;;;;;;;12.23;6.28;;;;;;;;;;6221511;23;20024;-66
2022/10/09 12:02:23;;;;;;;8.38;5.30;;;;;;;;;;6249046;23;20022;-67
2022/10/09 12:04:50;;;;;;;9.48;5.32;;;;;;;;;;6221579;23;20016;-67
2022/10/09 12:07:27;;;;;;;17.80;7.22;;;;;;;;;;6248747;23;20016;-66
2022/10/09 12:10:00;;;;;;;9.68;5.78;;;;;;;;;;6248503;23;20019;-66
2022/10/09 12:12:28;;;;;;;7.47;6.00;;;;;;;;;;6248791;23;20024;-67
2022/10/09 12:14:55;;;;;;;7.97;5.57;;;;;;;;;;6248446;23;20020;-67
2022/10/09 12:17:23;;;;;;;9.30;5.20;;;;;;;;;;6221808;23;20464;-67
2022/10/09 12:19:54;;;;;;;9.43;5.93;;;;;;;;;;6248674;23;20382;-67
2022/10/09 12:22:33;;;;;;;7.15;5.03;;;;;;;;;;6248386;23;20016;-67
2022/10/09 12:25:13;;;;;;;8.70;5.00;;;;;;;;;;6246774;23;20016;-67
2022/10/09 12:27:40;;;;;;;9.20;5.57;;;;;;;;;;6246753;23;20405;-68
2022/10/09 12:30:14;;;;;;;7.93;4.90;;;;;;;;;;6246792;23;20020;-66
2022/10/09 12:32:45;;;;;;;8.00;5.70;;;;;;;;;;6219701;23;20066;-68
2022/10/09 12:35:22;;;;;;;9.50;6.63;;;;;;;;;;6246925;23;20028;-69
2022/10/09 12:37:49;;;;;;;8.25;6.10;;;;;;;;;;6246555;23;20023;-66
2022/10/09 12:40:21;;;;;;;7.13;5.18;;;;;;;;;;6247020;23;20086;-68
2022/10/09 12:42:53;;;;;;;10.23;6.00;;;;;;;;;;6219836;23;20398;-65
2022/10/09 12:45:22;;;;;;;9.45;5.68;;;;;;;;;;6219687;23;20019;-66
2022/10/09 12:47:50;;;;;;;12.50;7.97;;;;;;;;;;6246705;23;20046;-67
2022/10/09 12:50:27;;;;;;;15.38;11.38;;;;;;;;;;6219912;23;20047;-66
2022/10/09 12:53:02;;;;;;;10.45;6.60;;;;;;;;;;6246487;23;20039;-67
2022/10/09 12:55:31;;;;;;;7.90;6.55;;;;;;;;;;6246600;23;20020;-66
2022/10/09 12:58:02;;;;;;;11.25;7.97;;;;;;;;;;6246909;23;20066;-67
2022/10/09 13:00:31;;;;;;;12.55;6.60;;;;;;;;;;6246526;23;20027;-67
2022/10/09 13:03:00;;;;;;;10.52;5.80;;;;;;;;;;6246121;23;20019;-68
2022/10/09 13:05:40;;;;;;;13.40;6.70;;;;;;;;;;6245076;23;20103;-68
2022/10/09 13:08:20;;;;;;;12.20;5.63;;;;;;;;;;6246122;23;20062;-68
2022/10/09 13:10:47;;;;;;;7.45;5.93;;;;;;;;;;6246012;23;20405;-66
2022/10/09 13:13:19;;;;;;;11.35;6.85;;;;;;;;;;6245762;23;20020;-67
2022/10/09 13:15:57;;;;;;;13.63;6.38;;;;;;;;;;6245497;23;20031;-66
2022/10/09 13:18:25;;;;;;;14.77;9.10;;;;;;;;;;6218967;23;20509;-67
2022/10/09 13:21:27;;;;;;;10.90;5.68;;;;;;;;;;6244915;23;20016;-66
2022/10/09 13:24:12;;;;;;;11.02;7.25;;;;;;;;;;6229418;23;20115;-66
2022/10/09 13:26:42;;;;;;;13.23;8.23;;;;;;;;;;6245087;23;20095;-69
2022/10/09 13:29:11;;;;;;;9.77;6.43;;;;;;;;;;6245205;23;20013;-67
2022/10/09 13:31:42;;;;;;;11.80;6.95;;;;;;;;;;6245316;23;20016;-67
2022/10/09 13:34:11;;;;;;;10.32;6.22;;;;;;;;;;6218041;23;20027;-68
2022/10/09 13:36:39;;;;;;;10.20;6.63;;;;;;;;;;6246109;23;20018;-67
2022/10/09 13:39:10;;;;;;;11.25;6.90;;;;;;;;;;6245671;23;20377;-68
2022/10/09 13:41:38;;;;;;;10.15;5.25;;;;;;;;;;6245716;23;20070;-67
2022/10/09 13:44:05;;;;;;;9.38;6.38;;;;;;;;;;6245726;23;20067;-67
2022/10/09 13:46:33;;;;;;;9.50;6.35;;;;;;;;;;6245788;23;20020;-67
2022/10/09 13:49:00;;;;;;;16.02;9.88;;;;;;;;;;6245992;23;20342;-68
2022/10/09 13:51:28;;;;;;;12.65;7.57;;;;;;;;;;6245521;23;20016;-68
2022/10/09 13:53:55;;;;;;;8.88;5.88;;;;;;;;;;6245645;23;20027;-68
2022/10/09 13:56:23;;;;;;;12.38;7.05;;;;;;;;;;6245242;23;20013;-68
2022/10/09 13:58:50;;;;;;;7.85;5.63;;;;;;;;;;6218941;23;20102;-67
2022/10/09 14:01:18;;;;;;;11.02;6.72;;;;;;;;;;6245428;23;20040;-66
2022/10/09 14:03:46;;;;;;;9.02;5.03;;;;;;;;;;6245489;23;20086;-68
2022/10/09 14:06:16;;;;;;;7.28;5.35;;;;;;;;;;6218504;23;20112;-67
2022/10/09 14:08:44;;;;;;;9.57;6.47;;;;;;;;;;6245619;23;20054;-67
2022/10/09 14:11:11;;;;;;;13.77;9.38;;;;;;;;;;6218401;23;20339;-67
2022/10/09 14:13:39;;;;;;;10.95;7.75;;;;;;;;;;6245298;23;20016;-67
2022/10/09 14:16:06;;;;;;;21.48;14.27;;;;;;;;;;6245400;23;20023;-67
2022/10/09 14:18:34;;;;;;;18.38;14.48;;;;;;;;;;6245170;23;20023;-68
2022/10/09 14:21:07;;;;;;;10.48;8.52;;;;;;;;;;6245030;23;20023;-67
2022/10/09 14:23:41;;;;;;;11.10;6.70;;;;;;;;;;6220200;23;20099;-68
2022/10/09 14:26:09;;;;;;;13.70;8.18;;;;;;;;;;6245032;23;20020;-68
2022/10/09 14:28:36;;;;;;;9.02;6.47;;;;;;;;;;6245037;23;20027;-66
2022/10/09 14:31:05;;;;;;;9.90;6.15;;;;;;;;;;6245464;23;20046;-68
2022/10/09 14:33:32;;;;;;;6.95;5.45;;;;;;;;;;6245357;23;20073;-68
2022/10/09 14:36:11;;;;;;;11.70;6.93;;;;;;;;;;6245517;23;20013;-68
2022/10/09 14:38:39;;;;;;;10.10;6.07;;;;;;;;;;6245167;23;20019;-68
2022/10/09 14:41:07;;;;;;;10.98;7.53;;;;;;;;;;6245517;23;20012;-68
2022/10/09 14:43:35;;;;;;;23.92;18.27;;;;;;;;;;6245436;23;20020;-68